Time;durP1;ratioP1;P1;durP2;ratioP2;P2;SDS_P1;SDS_P2;PMS_P1;PMS_P2;Temp;Humidity;BMP_temperature;BMP_pressure;BME280_temperature;BME280_humidity;BME280_pressure;Samples;Min_cycle;Max_cycle;Signal;HPM_P1;HPM_P2
2023/05/23 00:00:01;;;;;;;11.20;7.80;;;;;;;;;;4970709;28;98962;-80
2023/05/23 00:02:37;;;;;;;16.58;10.20;;;;;;;;;;4967835;28;98085;-80
2023/05/23 00:05:04;;;;;;;18.60;10.00;;;;;;;;;;4970497;28;98392;-81
2023/05/23 00:07:32;;;;;;;21.92;10.65;;;;;;;;;;4969676;28;99999;-80
2023/05/23 00:09:58;;;;;;;23.17;10.02;;;;;;;;;;4971010;28;98154;-80
2023/05/23 00:12:26;;;;;;;20.90;9.82;;;;;;;;;;4973580;28;99546;-81
2023/05/23 00:14:52;;;;;;;16.60;9.07;;;;;;;;;;4971127;28;99500;-80
2023/05/23 00:17:20;;;;;;;18.27;10.63;;;;;;;;;;4980194;28;99752;-79
2023/05/23 00:19:47;;;;;;;17.52;10.45;;;;;;;;;;4984262;28;99367;-81
2023/05/23 00:22:15;;;;;;;17.95;9.82;;;;;;;;;;4974252;28;98184;-81
2023/05/23 00:24:42;;;;;;;17.42;10.77;;;;;;;;;;4970381;28;99392;-80
2023/05/23 00:27:09;;;;;;;15.38;8.00;;;;;;;;;;4968063;28;99014;-81
2023/05/23 00:29:37;;;;;;;15.32;10.00;;;;;;;;;;4969160;28;98886;-80
2023/05/23 00:32:05;;;;;;;15.07;10.65;;;;;;;;;;4967994;28;98400;-79
2023/05/23 00:34:33;;;;;;;19.65;10.55;;;;;;;;;;4972482;28;98785;-80
2023/05/23 00:37:01;;;;;;;12.88;8.32;;;;;;;;;;4970545;28;98364;-79
2023/05/23 00:39:27;;;;;;;16.92;10.82;;;;;;;;;;4967165;28;99914;-80
2023/05/23 00:41:55;;;;;;;16.48;9.98;;;;;;;;;;4956208;28;98442;-81
2023/05/23 00:44:22;;;;;;;20.63;10.25;;;;;;;;;;4966753;28;99459;-80
2023/05/23 00:46:53;;;;;;;18.98;9.65;;;;;;;;;;4968503;28;100770;-79
2023/05/23 00:49:20;;;;;;;16.80;9.82;;;;;;;;;;4968524;28;98247;-80
2023/05/23 00:51:48;;;;;;;15.63;9.98;;;;;;;;;;4973947;28;101274;-81
2023/05/23 00:54:17;;;;;;;14.48;9.27;;;;;;;;;;4968050;28;98788;-79
2023/05/23 00:56:43;;;;;;;13.45;8.70;;;;;;;;;;4970239;28;98230;-79
2023/05/23 00:59:11;;;;;;;15.82;9.45;;;;;;;;;;4970178;28;99320;-79
2023/05/23 01:01:39;;;;;;;13.82;8.60;;;;;;;;;;4969178;28;99342;-80
2023/05/23 01:04:06;;;;;;;15.77;8.90;;;;;;;;;;4970098;28;98969;-81
2023/05/23 01:06:32;;;;;;;15.65;8.70;;;;;;;;;;4969532;28;101105;-78
2023/05/23 01:09:08;;;;;;;12.65;8.50;;;;;;;;;;4969577;28;98282;-81
2023/05/23 01:11:55;;;;;;;12.93;8.40;;;;;;;;;;4970848;28;98672;-81
2023/05/23 01:14:26;;;;;;;10.68;8.45;;;;;;;;;;4954055;28;98604;-77
2023/05/23 01:16:56;;;;;;;10.05;7.65;;;;;;;;;;4977964;28;98651;-78
2023/05/23 01:19:42;;;;;;;14.90;7.38;;;;;;;;;;4956114;28;98315;-81
2023/05/23 01:22:15;;;;;;;8.40;7.45;;;;;;;;;;4969322;28;98141;-79
2023/05/23 01:24:44;;;;;;;12.48;7.63;;;;;;;;;;4969341;28;98561;-78
2023/05/23 01:27:21;;;;;;;10.45;7.47;;;;;;;;;;4968649;28;100130;-79
2023/05/23 01:29:55;;;;;;;10.10;7.68;;;;;;;;;;4966737;28;98803;-79
2023/05/23 01:32:23;;;;;;;12.38;7.25;;;;;;;;;;4968937;28;98480;-78
2023/05/23 01:34:51;;;;;;;10.13;7.45;;;;;;;;;;4968171;28;98953;-81
2023/05/23 01:37:19;;;;;;;9.65;6.80;;;;;;;;;;4967101;28;98186;-77
2023/05/23 01:39:47;;;;;;;9.77;6.90;;;;;;;;;;4968431;28;99104;-80
2023/05/23 01:42:14;;;;;;;10.27;6.75;;;;;;;;;;4968515;28;98659;-78
2023/05/23 01:44:41;;;;;;;11.45;7.45;;;;;;;;;;4967158;28;98504;-80
2023/05/23 01:47:08;;;;;;;12.25;7.15;;;;;;;;;;4966987;28;98857;-79
2023/05/23 01:49:39;;;;;;;12.07;8.43;;;;;;;;;;4966129;28;98253;-78
2023/05/23 01:52:10;;;;;;;10.15;6.75;;;;;;;;;;4972008;28;100954;-78
2023/05/23 01:54:38;;;;;;;14.15;7.68;;;;;;;;;;4967684;28;100891;-78
2023/05/23 01:57:05;;;;;;;10.88;6.65;;;;;;;;;;4957549;28;98292;-80
2023/05/23 01:59:31;;;;;;;12.73;7.55;;;;;;;;;;4939564;28;100224;-79
2023/05/23 02:01:58;;;;;;;12.73;7.45;;;;;;;;;;4971369;28;101222;-79
2023/05/23 02:04:26;;;;;;;19.70;8.75;;;;;;;;;;4967914;28;98830;-77
2023/05/23 02:06:53;;;;;;;17.25;8.00;;;;;;;;;;4970941;28;101592;-78
2023/05/23 02:09:20;;;;;;;13.38;7.95;;;;;;;;;;4976984;28;98036;-77
2023/05/23 02:11:46;;;;;;;11.88;7.03;;;;;;;;;;4974751;28;100296;-78
2023/05/23 02:14:12;;;;;;;16.33;8.05;;;;;;;;;;4982829;28;101947;-79
2023/05/23 02:16:39;;;;;;;15.32;7.57;;;;;;;;;;4969834;28;98227;-79
2023/05/23 02:19:05;;;;;;;17.50;8.95;;;;;;;;;;4972525;28;100674;-79
2023/05/23 02:21:33;;;;;;;12.52;6.95;;;;;;;;;;4974999;28;99628;-79
2023/05/23 02:24:02;;;;;;;18.80;7.85;;;;;;;;;;4954249;28;98421;-78
2023/05/23 02:26:28;;;;;;;19.35;8.40;;;;;;;;;;4961601;28;101027;-80
2023/05/23 02:28:55;;;;;;;16.27;7.72;;;;;;;;;;4969537;28;98247;-79
2023/05/23 02:31:23;;;;;;;18.52;8.30;;;;;;;;;;4968030;28;101156;-81
2023/05/23 02:33:49;;;;;;;20.42;7.55;;;;;;;;;;4965648;28;100582;-78
2023/05/23 02:36:18;;;;;;;19.20;7.63;;;;;;;;;;4966075;28;98333;-80
2023/05/23 02:38:45;;;;;;;9.85;6.63;;;;;;;;;;4969735;28;99385;-79
2023/05/23 02:41:11;;;;;;;13.57;7.20;;;;;;;;;;4963082;28;100920;-78
2023/05/23 02:43:38;;;;;;;15.43;7.72;;;;;;;;;;4956375;28;98342;-79
2023/05/23 02:46:05;;;;;;;14.32;7.05;;;;;;;;;;4974714;28;99414;-80
2023/05/23 02:48:32;;;;;;;21.10;8.50;;;;;;;;;;4973778;28;98223;-79
2023/05/23 02:50:59;;;;;;;15.73;7.70;;;;;;;;;;4972770;28;101116;-80
2023/05/23 02:53:27;;;;;;;13.27;7.25;;;;;;;;;;4971766;28;98965;-80
2023/05/23 02:55:54;;;;;;;14.20;6.88;;;;;;;;;;4971326;28;97927;-81
2023/05/23 02:58:21;;;;;;;21.42;6.45;;;;;;;;;;4970831;28;98442;-81
2023/05/23 03:00:51;;;;;;;12.85;6.78;;;;;;;;;;4970185;28;101717;-79
2023/05/23 03:03:19;;;;;;;21.40;8.27;;;;;;;;;;4970013;28;98097;-79
2023/05/23 03:05:46;;;;;;;16.38;7.10;;;;;;;;;;4973091;28;101037;-78
2023/05/23 03:08:12;;;;;;;13.43;7.70;;;;;;;;;;4986477;28;98965;-77
2023/05/23 03:10:39;;;;;;;24.73;7.57;;;;;;;;;;4985154;28;98479;-78
2023/05/23 03:13:05;;;;;;;12.85;7.00;;;;;;;;;;4973080;28;99229;-78
2023/05/23 03:15:31;;;;;;;20.90;7.88;;;;;;;;;;4970081;28;98148;-78
2023/05/23 03:17:59;;;;;;;19.42;8.50;;;;;;;;;;4973077;28;98252;-79
2023/05/23 03:20:26;;;;;;;27.05;8.85;;;;;;;;;;4970861;28;100098;-80
2023/05/23 03:22:53;;;;;;;21.67;7.93;;;;;;;;;;4970369;28;99380;-78
2023/05/23 03:25:21;;;;;;;16.30;6.72;;;;;;;;;;4969176;28;100776;-77
2023/05/23 03:27:47;;;;;;;25.58;9.38;;;;;;;;;;4970871;28;101656;-79
2023/05/23 03:30:14;;;;;;;21.30;8.77;;;;;;;;;;4974249;28;98381;-79
2023/05/23 03:32:41;;;;;;;19.42;8.60;;;;;;;;;;4969666;28;98910;-80
2023/05/23 03:35:08;;;;;;;25.38;8.70;;;;;;;;;;4969475;28;98362;-81
2023/05/23 03:37:35;;;;;;;29.20;8.50;;;;;;;;;;4968833;28;98478;-79
2023/05/23 03:40:02;;;;;;;21.05;8.40;;;;;;;;;;4969613;28;98625;-80
2023/05/23 03:42:29;;;;;;;21.27;9.90;;;;;;;;;;4968648;28;98757;-79
2023/05/23 03:44:56;;;;;;;28.00;9.68;;;;;;;;;;4956296;28;101316;-77
2023/05/23 03:47:25;;;;;;;19.15;9.38;;;;;;;;;;4968415;28;98859;-76
2023/05/23 03:49:54;;;;;;;21.43;10.70;;;;;;;;;;4967166;28;98580;-78
2023/05/23 03:52:22;;;;;;;20.27;9.23;;;;;;;;;;4974436;28;99467;-79
2023/05/23 03:54:49;;;;;;;31.88;9.43;;;;;;;;;;4964434;28;98325;-77
2023/05/23 03:57:15;;;;;;;28.05;9.02;;;;;;;;;;4971841;28;99132;-78
2023/05/23 03:59:42;;;;;;;23.67;9.13;;;;;;;;;;4970513;28;98901;-76
2023/05/23 04:02:11;;;;;;;19.27;8.90;;;;;;;;;;4971161;28;98414;-78
2023/05/23 04:04:38;;;;;;;22.90;8.75;;;;;;;;;;4972950;28;99156;-77
2023/05/23 04:07:08;;;;;;;23.67;8.60;;;;;;;;;;4985037;28;98137;-77
2023/05/23 04:09:35;;;;;;;24.50;8.60;;;;;;;;;;4970702;28;99160;-79
2023/05/23 04:12:07;;;;;;;18.35;7.03;;;;;;;;;;4973693;28;100406;-78
2023/05/23 04:14:36;;;;;;;23.95;8.20;;;;;;;;;;4968390;28;98304;-79
2023/05/23 04:17:07;;;;;;;23.60;7.57;;;;;;;;;;4975015;28;98452;-77
2023/05/23 04:19:36;;;;;;;35.42;8.48;;;;;;;;;;4972335;28;100421;-78
2023/05/23 04:22:04;;;;;;;21.35;7.95;;;;;;;;;;4971690;28;98572;-78
2023/05/23 04:24:33;;;;;;;29.10;7.53;;;;;;;;;;4968999;28;99409;-80
2023/05/23 04:27:00;;;;;;;25.33;6.60;;;;;;;;;;4969550;28;100264;-78
2023/05/23 04:29:30;;;;;;;24.17;7.78;;;;;;;;;;4967889;28;98271;-78
2023/05/23 04:31:57;;;;;;;14.00;5.75;;;;;;;;;;4967744;28;101069;-78
2023/05/23 04:34:29;;;;;;;17.10;5.68;;;;;;;;;;4972121;28;99211;-78
2023/05/23 04:36:57;;;;;;;18.98;5.97;;;;;;;;;;4966979;28;100416;-77
2023/05/23 04:39:28;;;;;;;17.38;5.65;;;;;;;;;;4964734;28;100801;-78
2023/05/23 04:42:17;;;;;;;9.20;4.20;;;;;;;;;;4959561;28;98753;-80
2023/05/23 04:45:03;;;;;;;19.48;4.22;;;;;;;;;;4976738;28;98559;-79
2023/05/23 04:47:48;;;;;;;15.07;4.57;;;;;;;;;;4963255;28;98525;-79
2023/05/23 04:50:34;;;;;;;16.67;4.85;;;;;;;;;;4955959;28;98182;-79
2023/05/23 04:53:03;;;;;;;14.77;4.97;;;;;;;;;;4975092;28;100678;-79
2023/05/23 04:55:33;;;;;;;15.20;4.80;;;;;;;;;;4969790;28;101435;-79
2023/05/23 04:57:59;;;;;;;13.00;5.18;;;;;;;;;;4972570;28;98487;-78
2023/05/23 05:00:26;;;;;;;15.45;5.10;;;;;;;;;;4969966;28;101525;-79
2023/05/23 05:02:53;;;;;;;18.52;5.32;;;;;;;;;;4980224;28;98111;-77
2023/05/23 05:05:22;;;;;;;22.35;5.78;;;;;;;;;;4967245;28;98930;-78
2023/05/23 05:07:49;;;;;;;20.40;4.97;;;;;;;;;;4972137;28;98790;-79
2023/05/23 05:10:16;;;;;;;24.27;5.88;;;;;;;;;;4971021;28;98025;-78
2023/05/23 05:12:48;;;;;;;15.60;5.43;;;;;;;;;;4967072;28;101146;-78
2023/05/23 05:15:16;;;;;;;21.95;6.00;;;;;;;;;;4969366;28;98263;-78
2023/05/23 05:17:45;;;;;;;11.25;4.32;;;;;;;;;;4972572;28;98367;-78
2023/05/23 05:20:17;;;;;;;12.90;4.95;;;;;;;;;;4973679;28;98623;-80
2023/05/23 05:22:44;;;;;;;9.73;4.07;;;;;;;;;;4969285;28;99013;-77
2023/05/23 05:25:12;;;;;;;18.23;5.32;;;;;;;;;;4970084;28;99447;-77
2023/05/23 05:27:38;;;;;;;18.13;4.97;;;;;;;;;;4974031;28;101371;-77
2023/05/23 05:30:08;;;;;;;15.35;5.03;;;;;;;;;;4980278;28;98310;-78
2023/05/23 05:32:56;;;;;;;20.45;5.32;;;;;;;;;;4967474;28;98488;-79
2023/05/23 05:35:23;;;;;;;15.90;5.15;;;;;;;;;;4967833;28;101572;-77
2023/05/23 05:37:50;;;;;;;18.05;4.22;;;;;;;;;;4973864;28;98411;-77
2023/05/23 05:40:17;;;;;;;11.93;5.10;;;;;;;;;;4971347;28;98322;-79
2023/05/23 05:42:43;;;;;;;13.13;5.78;;;;;;;;;;4982566;28;102249;-78
2023/05/23 05:45:10;;;;;;;17.30;5.57;;;;;;;;;;4980749;28;100962;-81
2023/05/23 05:47:38;;;;;;;12.90;4.90;;;;;;;;;;4977690;28;101229;-79
2023/05/23 05:50:06;;;;;;;11.95;5.35;;;;;;;;;;4974615;28;98499;-77
2023/05/23 05:52:37;;;;;;;12.70;5.57;;;;;;;;;;4975001;28;101286;-78
2023/05/23 05:55:07;;;;;;;9.73;4.82;;;;;;;;;;4975261;28;101023;-79
2023/05/23 05:57:37;;;;;;;15.20;5.72;;;;;;;;;;4983293;28;98045;-78
2023/05/23 06:00:12;;;;;;;16.38;6.43;;;;;;;;;;4974396;28;98856;-77
2023/05/23 06:02:43;;;;;;;11.68;5.53;;;;;;;;;;4967731;28;98785;-77
2023/05/23 06:05:15;;;;;;;18.08;6.28;;;;;;;;;;4977040;28;98398;-78
2023/05/23 06:07:44;;;;;;;17.65;6.22;;;;;;;;;;4968535;28;101173;-77
2023/05/23 06:10:13;;;;;;;16.00;5.93;;;;;;;;;;4963753;28;98432;-78
2023/05/23 06:12:44;;;;;;;7.40;4.38;;;;;;;;;;4960317;28;100030;-78
2023/05/23 06:15:12;;;;;;;22.45;6.10;;;;;;;;;;4970357;28;99791;-80
2023/05/23 06:17:38;;;;;;;14.95;6.15;;;;;;;;;;4977940;28;98233;-79
2023/05/23 06:20:05;;;;;;;18.20;7.38;;;;;;;;;;4963343;28;100510;-77
2023/05/23 06:22:35;;;;;;;21.83;6.70;;;;;;;;;;4966511;28;99542;-76
2023/05/23 06:25:04;;;;;;;15.90;6.95;;;;;;;;;;4976445;28;98724;-78
2023/05/23 06:27:31;;;;;;;17.15;7.13;;;;;;;;;;4964227;28;99828;-77
2023/05/23 06:30:01;;;;;;;22.33;5.78;;;;;;;;;;4965223;28;99838;-79
2023/05/23 06:32:28;;;;;;;18.90;5.97;;;;;;;;;;4970021;28;101098;-78
2023/05/23 06:34:54;;;;;;;16.67;5.88;;;;;;;;;;4970015;28;101627;-76
2023/05/23 06:37:22;;;;;;;21.25;7.20;;;;;;;;;;4966968;28;98432;-77
2023/05/23 06:39:50;;;;;;;12.70;6.00;;;;;;;;;;4962616;28;98504;-78
2023/05/23 06:42:20;;;;;;;12.23;5.03;;;;;;;;;;4971377;28;100037;-77
2023/05/23 06:45:09;;;;;;;9.70;5.50;;;;;;;;;;4966462;28;100176;-76
2023/05/23 06:47:36;;;;;;;11.30;4.60;;;;;;;;;;4966531;28;100465;-77
2023/05/23 06:50:03;;;;;;;16.73;5.32;;;;;;;;;;4966156;28;99273;-77
2023/05/23 06:52:31;;;;;;;11.85;4.60;;;;;;;;;;4976129;28;99712;-78
2023/05/23 06:54:58;;;;;;;13.07;4.95;;;;;;;;;;4972936;28;102048;-77
2023/05/23 06:57:24;;;;;;;11.13;3.72;;;;;;;;;;4974661;28;98231;-78
2023/05/23 06:59:52;;;;;;;8.10;3.70;;;;;;;;;;4962310;28;99944;-78
2023/05/23 07:02:20;;;;;;;5.97;3.45;;;;;;;;;;4970636;28;100873;-79
2023/05/23 07:04:46;;;;;;;8.73;3.92;;;;;;;;;;4973333;28;98196;-79
2023/05/23 07:07:19;;;;;;;12.88;4.20;;;;;;;;;;4962698;28;101082;-79
2023/05/23 07:09:47;;;;;;;6.78;3.72;;;;;;;;;;4977708;28;101706;-77
2023/05/23 07:12:17;;;;;;;12.73;3.67;;;;;;;;;;4968500;28;98651;-79
2023/05/23 07:14:45;;;;;;;15.30;4.38;;;;;;;;;;4978676;28;100845;-79
2023/05/23 07:17:13;;;;;;;18.30;3.17;;;;;;;;;;4964453;28;98678;-79
2023/05/23 07:19:40;;;;;;;17.40;3.47;;;;;;;;;;4967860;28;98285;-79
2023/05/23 07:22:06;;;;;;;16.65;4.40;;;;;;;;;;4964772;28;100782;-78
2023/05/23 07:24:36;;;;;;;19.92;3.40;;;;;;;;;;4979646;28;98965;-79
2023/05/23 07:27:05;;;;;;;14.45;3.05;;;;;;;;;;4963182;28;100737;-77
2023/05/23 07:29:33;;;;;;;14.20;3.80;;;;;;;;;;4967983;28;100092;-76
2023/05/23 07:32:03;;;;;;;13.00;3.53;;;;;;;;;;4976548;28;99625;-79
2023/05/23 07:34:31;;;;;;;15.60;3.25;;;;;;;;;;4967088;28;100718;-77
2023/05/23 07:37:00;;;;;;;18.17;3.88;;;;;;;;;;4969561;28;99683;-77
2023/05/23 07:39:32;;;;;;;17.65;4.47;;;;;;;;;;4968004;28;100556;-79
2023/05/23 07:42:01;;;;;;;18.65;4.65;;;;;;;;;;4962711;28;98663;-78
2023/05/23 07:44:28;;;;;;;12.57;3.58;;;;;;;;;;4970613;28;98948;-80
2023/05/23 07:46:54;;;;;;;16.73;3.13;;;;;;;;;;4967163;28;101396;-77
2023/05/23 07:49:22;;;;;;;15.75;4.07;;;;;;;;;;4974143;28;100231;-78
2023/05/23 07:51:49;;;;;;;10.38;2.75;;;;;;;;;;4962982;28;98587;-77
2023/05/23 07:54:16;;;;;;;14.05;3.70;;;;;;;;;;4975776;28;99717;-77
2023/05/23 07:56:44;;;;;;;16.85;3.85;;;;;;;;;;4967706;28;98425;-77
2023/05/23 07:59:12;;;;;;;10.15;3.30;;;;;;;;;;4967803;28;101174;-77
2023/05/23 08:01:41;;;;;;;11.00;2.72;;;;;;;;;;4967965;28;101226;-77
2023/05/23 08:04:11;;;;;;;16.55;4.15;;;;;;;;;;4969267;28;98750;-77
2023/05/23 08:06:46;;;;;;;19.38;3.38;;;;;;;;;;4967740;28;100729;-78
2023/05/23 08:09:39;;;;;;;11.65;3.03;;;;;;;;;;4966050;28;100559;-76
2023/05/23 08:12:09;;;;;;;19.63;4.22;;;;;;;;;;4963097;28;98248;-77
2023/05/23 08:14:38;;;;;;;7.60;2.50;;;;;;;;;;4967949;28;98639;-76
2023/05/23 08:17:27;;;;;;;12.20;3.33;;;;;;;;;;4969798;28;98224;-76
2023/05/23 08:19:55;;;;;;;14.43;3.83;;;;;;;;;;4968556;28;101062;-77
2023/05/23 08:22:22;;;;;;;19.50;3.80;;;;;;;;;;4967948;28;102015;-77
2023/05/23 08:24:48;;;;;;;10.82;3.63;;;;;;;;;;4964973;28;99315;-77
2023/05/23 08:27:15;;;;;;;13.07;3.60;;;;;;;;;;4962379;28;100144;-77
2023/05/23 08:29:46;;;;;;;16.63;3.85;;;;;;;;;;4965819;28;99089;-77
2023/05/23 08:32:14;;;;;;;6.45;2.35;;;;;;;;;;4968312;28;98955;-79
2023/05/23 08:34:42;;;;;;;17.50;4.28;;;;;;;;;;4967837;28;100120;-77
2023/05/23 08:37:09;;;;;;;16.98;4.18;;;;;;;;;;4966052;28;100109;-78
2023/05/23 08:39:38;;;;;;;15.50;3.22;;;;;;;;;;4965584;28;100564;-77
2023/05/23 08:42:33;;;;;;;13.90;3.40;;;;;;;;;;4965463;28;99730;-78
2023/05/23 08:45:01;;;;;;;10.88;3.58;;;;;;;;;;4968751;28;98319;-76
2023/05/23 08:47:29;;;;;;;13.32;2.85;;;;;;;;;;4968827;28;100436;-77
2023/05/23 08:50:00;;;;;;;10.07;3.50;;;;;;;;;;4966365;28;100754;-79
2023/05/23 08:52:28;;;;;;;27.17;3.55;;;;;;;;;;4967808;28;98597;-79
2023/05/23 08:54:58;;;;;;;14.07;3.50;;;;;;;;;;4966843;28;100447;-79
2023/05/23 08:57:29;;;;;;;16.05;3.33;;;;;;;;;;4963504;28;101231;-78
2023/05/23 09:00:04;;;;;;;20.33;5.63;;;;;;;;;;4966435;28;98345;-77
2023/05/23 09:02:32;;;;;;;19.83;4.03;;;;;;;;;;4966936;28;98976;-76
2023/05/23 09:05:09;;;;;;;18.80;3.85;;;;;;;;;;4966201;28;98311;-77
2023/05/23 09:07:38;;;;;;;11.68;3.60;;;;;;;;;;4962294;28;99845;-78
2023/05/23 09:10:07;;;;;;;6.13;2.78;;;;;;;;;;4967964;28;98719;-78
2023/05/23 09:12:36;;;;;;;16.17;3.15;;;;;;;;;;4969087;28;98696;-77
2023/05/23 09:15:08;;;;;;;12.10;3.33;;;;;;;;;;4954740;28;98458;-76
2023/05/23 09:17:36;;;;;;;17.45;4.57;;;;;;;;;;4966816;28;98882;-78
2023/05/23 09:20:10;;;;;;;11.77;3.17;;;;;;;;;;4964033;28;98894;-76
2023/05/23 09:22:49;;;;;;;17.25;3.92;;;;;;;;;;4959003;28;98523;-76
2023/05/23 09:25:17;;;;;;;14.48;3.90;;;;;;;;;;4957615;28;98281;-77
2023/05/23 09:27:44;;;;;;;12.82;3.25;;;;;;;;;;4968522;28;99475;-76
2023/05/23 09:30:14;;;;;;;20.08;4.53;;;;;;;;;;4959154;28;101810;-78
2023/05/23 09:32:43;;;;;;;17.20;3.95;;;;;;;;;;4964652;28;98287;-76
2023/05/23 09:35:12;;;;;;;12.68;3.17;;;;;;;;;;4964129;28;98547;-80
2023/05/23 09:37:44;;;;;;;11.52;3.00;;;;;;;;;;4960440;28;102099;-77
2023/05/23 09:40:13;;;;;;;11.60;3.80;;;;;;;;;;4965594;28;99453;-78
2023/05/23 09:43:00;;;;;;;12.02;3.97;;;;;;;;;;4945278;28;100935;-79
2023/05/23 09:45:32;;;;;;;14.18;3.15;;;;;;;;;;4977171;28;99199;-79
2023/05/23 09:48:00;;;;;;;14.82;3.70;;;;;;;;;;4964124;28;98810;-78
2023/05/23 09:50:32;;;;;;;18.48;3.70;;;;;;;;;;4964478;28;101535;-80
2023/05/23 09:53:21;;;;;;;16.63;3.63;;;;;;;;;;4967955;28;98262;-77
2023/05/23 09:55:50;;;;;;;16.40;3.55;;;;;;;;;;4959752;28;98725;-79
2023/05/23 09:58:18;;;;;;;16.30;3.03;;;;;;;;;;4967131;28;99969;-76
2023/05/23 10:00:45;;;;;;;13.48;3.05;;;;;;;;;;4965866;28;99235;-78
2023/05/23 10:03:13;;;;;;;10.05;4.00;;;;;;;;;;4964770;28;99560;-79
2023/05/23 10:05:40;;;;;;;15.77;3.28;;;;;;;;;;4966046;28;101095;-78
2023/05/23 10:08:09;;;;;;;10.18;2.90;;;;;;;;;;4975699;28;98998;-78
2023/05/23 10:10:56;;;;;;;15.70;3.10;;;;;;;;;;4966546;28;98899;-79
2023/05/23 10:13:26;;;;;;;12.93;3.22;;;;;;;;;;4966668;28;98276;-80
2023/05/23 10:15:58;;;;;;;9.68;3.13;;;;;;;;;;4959962;28;99650;-77
2023/05/23 10:18:28;;;;;;;14.30;3.67;;;;;;;;;;4965246;28;99219;-78
2023/05/23 10:20:58;;;;;;;18.73;3.92;;;;;;;;;;4964327;28;98574;-77
2023/05/23 10:23:30;;;;;;;12.07;4.03;;;;;;;;;;4967382;28;99620;-78
2023/05/23 10:25:59;;;;;;;18.15;3.65;;;;;;;;;;4969424;28;98242;-79
2023/05/23 10:28:27;;;;;;;8.05;3.25;;;;;;;;;;4971018;28;98253;-79
2023/05/23 10:30:54;;;;;;;17.55;4.05;;;;;;;;;;4960169;28;99869;-79
2023/05/23 10:33:23;;;;;;;15.25;3.30;;;;;;;;;;4969098;28;98310;-77
2023/05/23 10:35:56;;;;;;;12.85;2.92;;;;;;;;;;4961550;28;98586;-79
2023/05/23 10:38:35;;;;;;;18.55;3.85;;;;;;;;;;4968391;28;99893;-77
2023/05/23 10:41:09;;;;;;;12.02;3.13;;;;;;;;;;4966640;28;98488;-78
2023/05/23 10:43:56;;;;;;;14.48;2.97;;;;;;;;;;4970250;28;98617;-76
2023/05/23 10:46:22;;;;;;;10.18;3.17;;;;;;;;;;4968644;28;99445;-79
2023/05/23 10:48:53;;;;;;;15.20;3.97;;;;;;;;;;4967196;28;98349;-80
2023/05/23 10:51:20;;;;;;;13.43;3.67;;;;;;;;;;4968580;28;98669;-78
2023/05/23 10:53:53;;;;;;;14.98;4.07;;;;;;;;;;4966961;28;98414;-78
2023/05/23 10:56:25;;;;;;;17.25;3.88;;;;;;;;;;4964657;28;98531;-80
2023/05/23 10:58:59;;;;;;;16.23;3.70;;;;;;;;;;4965194;28;99009;-77
2023/05/23 11:01:26;;;;;;;8.25;2.97;;;;;;;;;;4967693;28;98220;-78
2023/05/23 11:04:06;;;;;;;17.45;4.00;;;;;;;;;;4970694;28;99606;-78
2023/05/23 11:06:43;;;;;;;8.05;2.97;;;;;;;;;;4962169;28;99899;-78
2023/05/23 11:09:12;;;;;;;9.48;3.42;;;;;;;;;;4967373;28;98546;-78
2023/05/23 11:11:58;;;;;;;13.68;2.92;;;;;;;;;;4959297;28;99620;-78
2023/05/23 11:14:28;;;;;;;11.70;3.03;;;;;;;;;;4960986;28;99641;-78
2023/05/23 11:16:54;;;;;;;10.77;3.47;;;;;;;;;;4967016;28;99597;-78
2023/05/23 11:19:24;;;;;;;8.43;2.55;;;;;;;;;;4969607;28;99197;-78
2023/05/23 11:21:52;;;;;;;11.88;3.03;;;;;;;;;;4962463;28;99661;-76
2023/05/23 11:24:18;;;;;;;13.45;2.80;;;;;;;;;;4963253;28;99947;-77
2023/05/23 11:26:53;;;;;;;13.15;3.17;;;;;;;;;;4963161;28;99937;-74
2023/05/23 11:29:20;;;;;;;9.75;2.47;;;;;;;;;;4969087;28;98129;-78
2023/05/23 11:31:48;;;;;;;13.10;3.70;;;;;;;;;;4970091;28;99381;-77
2023/05/23 11:34:14;;;;;;;11.50;3.58;;;;;;;;;;4961294;28;99875;-76
2023/05/23 11:36:41;;;;;;;14.40;3.25;;;;;;;;;;4973388;28;99673;-77
2023/05/23 11:39:07;;;;;;;9.57;3.08;;;;;;;;;;4970103;28;99944;-76
2023/05/23 11:41:35;;;;;;;9.13;2.90;;;;;;;;;;4961337;28;99694;-76
2023/05/23 11:44:09;;;;;;;11.10;2.92;;;;;;;;;;4968159;28;99454;-75
2023/05/23 11:46:36;;;;;;;11.85;2.80;;;;;;;;;;4968589;28;99927;-77
2023/05/23 11:49:09;;;;;;;13.20;3.05;;;;;;;;;;4968956;28;98528;-75
2023/05/23 11:51:35;;;;;;;15.30;3.00;;;;;;;;;;4959136;28;99422;-75
2023/05/23 11:54:03;;;;;;;8.23;2.70;;;;;;;;;;4966929;28;100390;-75
2023/05/23 11:56:29;;;;;;;12.55;2.65;;;;;;;;;;4967192;28;98424;-75
2023/05/23 11:58:56;;;;;;;11.93;3.47;;;;;;;;;;4970030;28;99475;-78
2023/05/23 12:01:27;;;;;;;10.38;3.58;;;;;;;;;;4951318;28;98246;-76
2023/05/23 12:03:54;;;;;;;8.20;3.20;;;;;;;;;;4958006;28;98590;-75
2023/05/23 12:06:25;;;;;;;5.53;2.28;;;;;;;;;;4967681;28;100057;-75
2023/05/23 12:08:51;;;;;;;11.75;2.83;;;;;;;;;;4968025;28;98337;-74
2023/05/23 12:11:18;;;;;;;12.55;2.88;;;;;;;;;;4964496;28;98813;-77
2023/05/23 12:13:44;;;;;;;9.80;2.50;;;;;;;;;;4964984;28;100110;-78
2023/05/23 12:16:14;;;;;;;7.88;2.47;;;;;;;;;;4962284;28;98524;-77
2023/05/23 12:18:45;;;;;;;18.02;3.50;;;;;;;;;;4966797;28;98500;-76
2023/05/23 12:21:13;;;;;;;11.27;3.40;;;;;;;;;;4977112;28;98984;-77
2023/05/23 12:23:40;;;;;;;10.07;2.60;;;;;;;;;;4959351;28;98825;-76
2023/05/23 12:26:10;;;;;;;11.68;2.67;;;;;;;;;;4960683;28;99944;-74
2023/05/23 12:28:37;;;;;;;16.15;2.88;;;;;;;;;;4968012;28;99539;-77
2023/05/23 12:31:12;;;;;;;9.30;2.72;;;;;;;;;;4964717;28;99615;-76
2023/05/23 12:33:42;;;;;;;8.95;2.38;;;;;;;;;;4959623;28;100155;-75
2023/05/23 12:36:09;;;;;;;7.88;2.53;;;;;;;;;;4957202;28;98333;-76
2023/05/23 12:38:36;;;;;;;12.23;3.15;;;;;;;;;;4967965;28;98940;-78
2023/05/23 12:41:25;;;;;;;13.07;2.95;;;;;;;;;;4970847;28;99400;-75
2023/05/23 12:43:53;;;;;;;9.80;2.75;;;;;;;;;;4961064;28;99007;-74
2023/05/23 12:46:22;;;;;;;7.15;2.35;;;;;;;;;;4970712;28;100931;-75
2023/05/23 12:48:52;;;;;;;12.90;3.45;;;;;;;;;;4968046;28;98238;-77
2023/05/23 12:51:20;;;;;;;11.02;3.42;;;;;;;;;;4960585;28;99261;-78
2023/05/23 12:53:46;;;;;;;11.38;3.75;;;;;;;;;;4966808;28;99030;-78
2023/05/23 12:56:13;;;;;;;14.25;2.95;;;;;;;;;;4969671;28;98566;-76
2023/05/23 12:58:41;;;;;;;12.35;3.65;;;;;;;;;;4968353;28;99848;-76
2023/05/23 13:01:07;;;;;;;8.15;2.72;;;;;;;;;;4967857;28;100476;-77
2023/05/23 13:03:35;;;;;;;13.18;3.00;;;;;;;;;;4971377;28;97982;-76
2023/05/23 13:06:02;;;;;;;16.45;4.05;;;;;;;;;;4972710;28;98990;-76
2023/05/23 13:08:31;;;;;;;7.15;2.40;;;;;;;;;;4968730;28;98190;-76
2023/05/23 13:10:58;;;;;;;9.32;3.53;;;;;;;;;;4968049;28;99628;-77
2023/05/23 13:13:24;;;;;;;10.65;2.55;;;;;;;;;;4968144;28;98987;-77
2023/05/23 13:15:53;;;;;;;14.00;2.90;;;;;;;;;;4969413;28;98311;-76
2023/05/23 13:18:22;;;;;;;7.22;3.17;;;;;;;;;;4967719;28;98697;-77
2023/05/23 13:20:49;;;;;;;9.63;2.50;;;;;;;;;;4961943;28;100122;-76
2023/05/23 13:23:19;;;;;;;10.95;3.33;;;;;;;;;;4968304;28;99641;-77
2023/05/23 13:25:45;;;;;;;15.70;2.97;;;;;;;;;;4969754;28;99268;-76
2023/05/23 13:28:14;;;;;;;12.57;3.47;;;;;;;;;;4966700;28;98206;-76
2023/05/23 13:30:42;;;;;;;13.85;3.22;;;;;;;;;;4967272;28;99402;-76
2023/05/23 13:33:12;;;;;;;14.48;2.92;;;;;;;;;;4966949;28;100122;-76
2023/05/23 13:35:39;;;;;;;9.27;2.83;;;;;;;;;;4968532;28;99919;-78
2023/05/23 13:38:06;;;;;;;11.25;2.58;;;;;;;;;;4967431;28;99488;-77
2023/05/23 13:40:32;;;;;;;9.38;2.42;;;;;;;;;;4968465;28;99929;-75
2023/05/23 13:42:59;;;;;;;11.13;2.92;;;;;;;;;;4972877;28;97957;-76
2023/05/23 13:45:26;;;;;;;11.68;2.65;;;;;;;;;;4968464;28;98289;-75
2023/05/23 13:47:57;;;;;;;6.82;2.40;;;;;;;;;;4967204;28;99922;-77
2023/05/23 13:50:24;;;;;;;8.20;2.20;;;;;;;;;;4962262;28;98925;-78
2023/05/23 13:52:51;;;;;;;7.97;2.45;;;;;;;;;;4961258;28;100807;-78
2023/05/23 13:55:17;;;;;;;5.75;2.05;;;;;;;;;;4957742;28;98243;-77
2023/05/23 13:57:44;;;;;;;9.73;2.60;;;;;;;;;;4967229;28;99617;-78
2023/05/23 14:00:12;;;;;;;11.82;3.00;;;;;;;;;;4959468;28;99079;-79
2023/05/23 14:02:38;;;;;;;10.43;2.25;;;;;;;;;;4963917;28;98574;-76
2023/05/23 14:05:06;;;;;;;7.18;2.28;;;;;;;;;;4964565;28;100285;-76
2023/05/23 14:07:32;;;;;;;10.75;2.55;;;;;;;;;;4960832;28;99074;-76
2023/05/23 14:09:59;;;;;;;13.18;2.92;;;;;;;;;;4966639;28;98575;-77
2023/05/23 14:12:25;;;;;;;13.68;3.25;;;;;;;;;;4966467;28;99372;-75
2023/05/23 14:14:52;;;;;;;6.75;2.15;;;;;;;;;;4963332;28;98212;-76
2023/05/23 14:17:18;;;;;;;9.90;3.60;;;;;;;;;;4957866;28;99963;-77
2023/05/23 14:19:46;;;;;;;9.45;2.55;;;;;;;;;;4964275;28;100122;-76
2023/05/23 14:22:13;;;;;;;14.55;3.22;;;;;;;;;;4965503;28;98232;-77
2023/05/23 14:24:43;;;;;;;13.73;2.85;;;;;;;;;;4966512;28;98929;-77
2023/05/23 14:27:10;;;;;;;9.93;2.80;;;;;;;;;;4975809;28;99276;-78
2023/05/23 14:29:37;;;;;;;7.55;2.20;;;;;;;;;;4960657;28;98268;-77
2023/05/23 14:32:03;;;;;;;6.18;2.30;;;;;;;;;;4965725;28;99641;-77
2023/05/23 14:34:30;;;;;;;12.05;2.95;;;;;;;;;;4966236;28;98963;-77
2023/05/23 14:36:57;;;;;;;6.72;2.35;;;;;;;;;;4965270;28;99869;-80
2023/05/23 14:39:24;;;;;;;9.25;2.55;;;;;;;;;;4969584;28;99957;-77